createdAt,value
2022-08-16T00:00:38.510Z,11
2022-08-16T00:29:07.644Z,12
2022-08-16T00:57:59.364Z,10
2022-08-16T01:26:33.870Z,12
2022-08-16T01:54:42.567Z,11
2022-08-16T02:23:17.111Z,12
2022-08-16T02:51:52.179Z,12
2022-08-16T03:20:42.882Z,10
2022-08-16T03:49:14.418Z,12
2022-08-16T04:18:01.639Z,12
2022-08-16T04:47:01.563Z,12
2022-08-16T05:15:16.273Z,12
2022-08-16T05:43:47.487Z,13
2022-08-16T06:12:26.476Z,13
2022-08-16T06:40:51.243Z,12
2022-08-16T07:09:32.593Z,11
2022-08-16T07:38:01.581Z,11
2022-08-16T08:06:37.313Z,10
2022-08-16T08:35:24.420Z,9
2022-08-16T09:03:47.953Z,9
2022-08-16T09:32:25.521Z,10
2022-08-16T10:00:42.882Z,11
2022-08-16T10:29:07.809Z,12
2022-08-16T10:57:51.279Z,11
2022-08-16T11:26:25.547Z,11
2022-08-16T11:55:00.668Z,10
2022-08-16T12:23:40.868Z,9
2022-08-16T12:52:27.964Z,8
2022-08-16T13:20:49.571Z,8
2022-08-16T13:49:19.363Z,8
2022-08-16T14:18:15.066Z,9
2022-08-16T14:46:22.791Z,9
2022-08-16T15:14:51.712Z,8
2022-08-16T15:43:34.033Z,8
2022-08-16T16:11:56.401Z,8
2022-08-16T16:40:36.797Z,10
2022-08-16T17:09:04.083Z,9
2022-08-16T17:37:42.538Z,10
2022-08-16T18:06:02.486Z,9
2022-08-16T18:34:42.614Z,8
2022-08-16T19:03:17.062Z,7
2022-08-16T19:31:55.425Z,8
2022-08-16T20:00:36.489Z,14
2022-08-16T20:29:13.769Z,15
2022-08-16T20:57:43.980Z,14
2022-08-16T21:26:26.968Z,15
2022-08-16T21:54:56.114Z,14
2022-08-16T22:23:38.583Z,15
2022-08-16T22:52:11.755Z,15
2022-08-16T23:20:48.276Z,14
2022-08-16T23:49:59.681Z,15
